sensor_id;sensor_type;location;lat;lon;timestamp;P1;durP1;ratioP1;P2;durP2;ratioP2
23718;SDS011;43322;52.230;5.702;2023-03-01T00:00:43;5.65;;;5.15;;
23718;SDS011;43322;52.230;5.702;2023-03-01T00:03:11;5.70;;;5.18;;
23718;SDS011;43322;52.230;5.702;2023-03-01T00:05:43;6.10;;;5.53;;
23718;SDS011;43322;52.230;5.702;2023-03-01T00:08:10;6.80;;;5.55;;
23718;SDS011;43322;52.230;5.702;2023-03-01T00:10:38;6.00;;;5.60;;
23718;SDS011;43322;52.230;5.702;2023-03-01T00:13:05;5.78;;;5.28;;
23718;SDS011;43322;52.230;5.702;2023-03-01T00:15:32;8.88;;;5.28;;
23718;SDS011;43322;52.230;5.702;2023-03-01T00:17:59;8.60;;;5.60;;
23718;SDS011;43322;52.230;5.702;2023-03-01T00:20:26;5.35;;;4.90;;
23718;SDS011;43322;52.230;5.702;2023-03-01T00:22:53;5.10;;;4.70;;
23718;SDS011;43322;52.230;5.702;2023-03-01T00:25:20;6.03;;;5.43;;
23718;SDS011;43322;52.230;5.702;2023-03-01T00:27:48;5.63;;;5.22;;
23718;SDS011;43322;52.230;5.702;2023-03-01T00:30:14;5.43;;;4.93;;
23718;SDS011;43322;52.230;5.702;2023-03-01T00:32:41;5.95;;;5.47;;
23718;SDS011;43322;52.230;5.702;2023-03-01T00:35:08;4.82;;;4.50;;
23718;SDS011;43322;52.230;5.702;2023-03-01T00:37:35;5.78;;;5.35;;
23718;SDS011;43322;52.230;5.702;2023-03-01T00:40:02;6.30;;;5.22;;
23718;SDS011;43322;52.230;5.702;2023-03-01T00:42:31;5.35;;;4.80;;
23718;SDS011;43322;52.230;5.702;2023-03-01T00:44:59;6.05;;;5.47;;
23718;SDS011;43322;52.230;5.702;2023-03-01T00:47:25;5.78;;;5.03;;
23718;SDS011;43322;52.230;5.702;2023-03-01T00:49:54;5.80;;;5.35;;
23718;SDS011;43322;52.230;5.702;2023-03-01T00:52:21;9.77;;;6.50;;
23718;SDS011;43322;52.230;5.702;2023-03-01T00:54:48;6.75;;;6.15;;
23718;SDS011;43322;52.230;5.702;2023-03-01T00:57:17;5.88;;;5.38;;
23718;SDS011;43322;52.230;5.702;2023-03-01T00:59:44;6.28;;;5.68;;
23718;SDS011;43322;52.230;5.702;2023-03-01T01:02:12;6.13;;;5.53;;
23718;SDS011;43322;52.230;5.702;2023-03-01T01:04:39;11.10;;;6.50;;
23718;SDS011;43322;52.230;5.702;2023-03-01T01:07:06;7.03;;;5.85;;
23718;SDS011;43322;52.230;5.702;2023-03-01T01:09:33;7.18;;;6.47;;
23718;SDS011;43322;52.230;5.702;2023-03-01T01:11:59;13.13;;;8.90;;
23718;SDS011;43322;52.230;5.702;2023-03-01T01:14:26;9.32;;;8.40;;
23718;SDS011;43322;52.230;5.702;2023-03-01T01:16:53;9.07;;;8.18;;
23718;SDS011;43322;52.230;5.702;2023-03-01T01:19:21;10.63;;;8.95;;
23718;SDS011;43322;52.230;5.702;2023-03-01T01:21:48;16.85;;;9.88;;
23718;SDS011;43322;52.230;5.702;2023-03-01T01:24:15;14.60;;;9.40;;
23718;SDS011;43322;52.230;5.702;2023-03-01T01:26:42;18.45;;;9.55;;
23718;SDS011;43322;52.230;5.702;2023-03-01T01:29:09;12.00;;;9.88;;
23718;SDS011;43322;52.230;5.702;2023-03-01T01:31:37;12.95;;;10.25;;
23718;SDS011;43322;52.230;5.702;2023-03-01T01:34:05;14.27;;;10.13;;
23718;SDS011;43322;52.230;5.702;2023-03-01T01:36:34;9.88;;;8.88;;
23718;SDS011;43322;52.230;5.702;2023-03-01T01:39:01;10.90;;;9.80;;
23718;SDS011;43322;52.230;5.702;2023-03-01T01:41:28;13.43;;;9.95;;
23718;SDS011;43322;52.230;5.702;2023-03-01T01:46:40;12.07;;;10.52;;
23718;SDS011;43322;52.230;5.702;2023-03-01T01:49:12;12.02;;;9.98;;
23718;SDS011;43322;52.230;5.702;2023-03-01T01:54:49;13.07;;;10.75;;
23718;SDS011;43322;52.230;5.702;2023-03-01T01:57:19;14.82;;;11.50;;
23718;SDS011;43322;52.230;5.702;2023-03-01T01:59:50;14.43;;;10.73;;
23718;SDS011;43322;52.230;5.702;2023-03-01T02:02:20;12.27;;;10.95;;
23718;SDS011;43322;52.230;5.702;2023-03-01T02:04:47;13.52;;;10.88;;
23718;SDS011;43322;52.230;5.702;2023-03-01T02:07:17;13.90;;;11.25;;
23718;SDS011;43322;52.230;5.702;2023-03-01T02:09:47;13.27;;;10.75;;
23718;SDS011;43322;52.230;5.702;2023-03-01T02:12:17;14.60;;;11.77;;
23718;SDS011;43322;52.230;5.702;2023-03-01T02:14:45;17.45;;;11.02;;
23718;SDS011;43322;52.230;5.702;2023-03-01T02:17:12;14.00;;;11.00;;
23718;SDS011;43322;52.230;5.702;2023-03-01T02:19:44;16.33;;;11.38;;
23718;SDS011;43322;52.230;5.702;2023-03-01T02:22:22;14.65;;;11.63;;
23718;SDS011;43322;52.230;5.702;2023-03-01T02:24:54;16.20;;;11.75;;
23718;SDS011;43322;52.230;5.702;2023-03-01T02:27:31;14.93;;;11.20;;
23718;SDS011;43322;52.230;5.702;2023-03-01T02:30:11;13.38;;;11.45;;
23718;SDS011;43322;52.230;5.702;2023-03-01T02:32:39;16.45;;;11.85;;
23718;SDS011;43322;52.230;5.702;2023-03-01T02:35:07;15.40;;;11.65;;
23718;SDS011;43322;52.230;5.702;2023-03-01T02:37:35;17.80;;;12.43;;
23718;SDS011;43322;52.230;5.702;2023-03-01T02:40:04;15.02;;;12.00;;
23718;SDS011;43322;52.230;5.702;2023-03-01T02:42:36;21.27;;;12.40;;
23718;SDS011;43322;52.230;5.702;2023-03-01T02:45:13;17.20;;;12.05;;
23718;SDS011;43322;52.230;5.702;2023-03-01T02:47:40;17.92;;;12.05;;
23718;SDS011;43322;52.230;5.702;2023-03-01T02:50:11;17.67;;;12.82;;
23718;SDS011;43322;52.230;5.702;2023-03-01T02:52:46;16.05;;;12.43;;
23718;SDS011;43322;52.230;5.702;2023-03-01T02:55:22;15.90;;;12.52;;
23718;SDS011;43322;52.230;5.702;2023-03-01T02:57:48;17.60;;;12.30;;
23718;SDS011;43322;52.230;5.702;2023-03-01T03:00:19;18.92;;;13.20;;
23718;SDS011;43322;52.230;5.702;2023-03-01T03:02:51;17.10;;;12.48;;
23718;SDS011;43322;52.230;5.702;2023-03-01T03:05:19;18.00;;;11.88;;
23718;SDS011;43322;52.230;5.702;2023-03-01T03:07:48;15.55;;;12.65;;
23718;SDS011;43322;52.230;5.702;2023-03-01T03:10:18;15.10;;;12.43;;
23718;SDS011;43322;52.230;5.702;2023-03-01T03:12:48;16.38;;;12.88;;
23718;SDS011;43322;52.230;5.702;2023-03-01T03:15:17;18.65;;;12.80;;
23718;SDS011;43322;52.230;5.702;2023-03-01T03:17:45;15.48;;;12.40;;
23718;SDS011;43322;52.230;5.702;2023-03-01T03:20:14;14.75;;;12.35;;
23718;SDS011;43322;52.230;5.702;2023-03-01T03:22:44;14.93;;;12.38;;
23718;SDS011;43322;52.230;5.702;2023-03-01T03:25:12;19.50;;;12.73;;
23718;SDS011;43322;52.230;5.702;2023-03-01T03:27:39;20.63;;;12.80;;
23718;SDS011;43322;52.230;5.702;2023-03-01T03:30:07;15.15;;;12.25;;
23718;SDS011;43322;52.230;5.702;2023-03-01T03:32:38;15.35;;;12.55;;
23718;SDS011;43322;52.230;5.702;2023-03-01T03:35:06;19.13;;;12.70;;
23718;SDS011;43322;52.230;5.702;2023-03-01T03:37:35;17.42;;;13.10;;
23718;SDS011;43322;52.230;5.702;2023-03-01T03:40:16;14.23;;;11.75;;
23718;SDS011;43322;52.230;5.702;2023-03-01T03:42:43;14.80;;;11.40;;
23718;SDS011;43322;52.230;5.702;2023-03-01T03:45:10;17.42;;;13.15;;
23718;SDS011;43322;52.230;5.702;2023-03-01T03:47:36;18.73;;;13.38;;
23718;SDS011;43322;52.230;5.702;2023-03-01T03:50:05;17.10;;;12.60;;
23718;SDS011;43322;52.230;5.702;2023-03-01T03:52:32;15.45;;;12.55;;
23718;SDS011;43322;52.230;5.702;2023-03-01T03:54:58;13.52;;;11.68;;
23718;SDS011;43322;52.230;5.702;2023-03-01T03:57:25;15.38;;;12.68;;
23718;SDS011;43322;52.230;5.702;2023-03-01T03:59:52;15.18;;;12.75;;
23718;SDS011;43322;52.230;5.702;2023-03-01T04:02:19;16.17;;;13.20;;
23718;SDS011;43322;52.230;5.702;2023-03-01T04:04:48;16.30;;;12.23;;
23718;SDS011;43322;52.230;5.702;2023-03-01T04:07:15;19.73;;;13.23;;
23718;SDS011;43322;52.230;5.702;2023-03-01T04:09:42;18.35;;;12.85;;
23718;SDS011;43322;52.230;5.702;2023-03-01T04:12:08;14.57;;;11.60;;
23718;SDS011;43322;52.230;5.702;2023-03-01T04:14:35;15.75;;;12.82;;
23718;SDS011;43322;52.230;5.702;2023-03-01T04:17:02;15.57;;;12.52;;
23718;SDS011;43322;52.230;5.702;2023-03-01T04:19:30;16.58;;;12.35;;
23718;SDS011;43322;52.230;5.702;2023-03-01T04:22:02;17.40;;;13.05;;
23718;SDS011;43322;52.230;5.702;2023-03-01T04:24:34;19.92;;;13.48;;
23718;SDS011;43322;52.230;5.702;2023-03-01T04:27:01;18.17;;;13.20;;
23718;SDS011;43322;52.230;5.702;2023-03-01T04:29:28;17.88;;;12.52;;
23718;SDS011;43322;52.230;5.702;2023-03-01T04:31:55;16.95;;;13.13;;
23718;SDS011;43322;52.230;5.702;2023-03-01T04:34:21;17.75;;;12.73;;
23718;SDS011;43322;52.230;5.702;2023-03-01T04:36:48;17.90;;;13.30;;
23718;SDS011;43322;52.230;5.702;2023-03-01T04:39:16;17.92;;;13.55;;
23718;SDS011;43322;52.230;5.702;2023-03-01T04:41:43;17.95;;;13.80;;
23718;SDS011;43322;52.230;5.702;2023-03-01T04:44:10;20.50;;;12.63;;
23718;SDS011;43322;52.230;5.702;2023-03-01T04:46:37;18.20;;;13.40;;
23718;SDS011;43322;52.230;5.702;2023-03-01T04:49:05;18.63;;;13.23;;
23718;SDS011;43322;52.230;5.702;2023-03-01T04:51:31;19.65;;;13.90;;
23718;SDS011;43322;52.230;5.702;2023-03-01T04:53:58;18.30;;;13.20;;
23718;SDS011;43322;52.230;5.702;2023-03-01T04:56:26;17.05;;;12.88;;
23718;SDS011;43322;52.230;5.702;2023-03-01T04:58:53;20.63;;;13.50;;
23718;SDS011;43322;52.230;5.702;2023-03-01T05:01:20;16.27;;;11.95;;
23718;SDS011;43322;52.230;5.702;2023-03-01T05:03:48;14.55;;;11.93;;
23718;SDS011;43322;52.230;5.702;2023-03-01T05:06:16;18.02;;;12.00;;
23718;SDS011;43322;52.230;5.702;2023-03-01T05:08:44;14.20;;;11.45;;
23718;SDS011;43322;52.230;5.702;2023-03-01T05:11:11;16.10;;;11.63;;
23718;SDS011;43322;52.230;5.702;2023-03-01T05:13:39;14.20;;;11.20;;
23718;SDS011;43322;52.230;5.702;2023-03-01T05:16:07;17.83;;;12.25;;
23718;SDS011;43322;52.230;5.702;2023-03-01T05:18:36;15.65;;;11.77;;
23718;SDS011;43322;52.230;5.702;2023-03-01T05:21:04;16.92;;;12.05;;
23718;SDS011;43322;52.230;5.702;2023-03-01T05:23:32;16.00;;;11.35;;
23718;SDS011;43322;52.230;5.702;2023-03-01T05:26:01;16.10;;;11.85;;
23718;SDS011;43322;52.230;5.702;2023-03-01T05:28:29;16.73;;;11.82;;
23718;SDS011;43322;52.230;5.702;2023-03-01T05:30:57;16.17;;;11.55;;
23718;SDS011;43322;52.230;5.702;2023-03-01T05:33:24;14.75;;;10.85;;
23718;SDS011;43322;52.230;5.702;2023-03-01T05:35:52;16.25;;;11.18;;
23718;SDS011;43322;52.230;5.702;2023-03-01T05:38:20;16.80;;;11.75;;
23718;SDS011;43322;52.230;5.702;2023-03-01T05:40:47;14.25;;;11.93;;
23718;SDS011;43322;52.230;5.702;2023-03-01T05:43:15;13.07;;;10.70;;
23718;SDS011;43322;52.230;5.702;2023-03-01T05:45:43;13.95;;;11.40;;
23718;SDS011;43322;52.230;5.702;2023-03-01T05:48:12;16.05;;;12.07;;
23718;SDS011;43322;52.230;5.702;2023-03-01T05:50:39;16.92;;;11.88;;
23718;SDS011;43322;52.230;5.702;2023-03-01T05:53:09;16.13;;;11.88;;
23718;SDS011;43322;52.230;5.702;2023-03-01T05:55:37;17.00;;;12.40;;
23718;SDS011;43322;52.230;5.702;2023-03-01T05:58:06;18.58;;;11.65;;
23718;SDS011;43322;52.230;5.702;2023-03-01T06:00:35;16.45;;;12.18;;
23718;SDS011;43322;52.230;5.702;2023-03-01T06:03:02;17.40;;;12.38;;
23718;SDS011;43322;52.230;5.702;2023-03-01T06:05:30;16.70;;;11.93;;
23718;SDS011;43322;52.230;5.702;2023-03-01T06:07:58;16.63;;;11.48;;
23718;SDS011;43322;52.230;5.702;2023-03-01T06:10:25;16.10;;;11.68;;
23718;SDS011;43322;52.230;5.702;2023-03-01T06:12:52;17.77;;;12.10;;
23718;SDS011;43322;52.230;5.702;2023-03-01T06:15:20;16.92;;;11.95;;
23718;SDS011;43322;52.230;5.702;2023-03-01T06:17:47;17.88;;;12.68;;
23718;SDS011;43322;52.230;5.702;2023-03-01T06:20:15;16.73;;;12.35;;
23718;SDS011;43322;52.230;5.702;2023-03-01T06:22:48;15.52;;;12.50;;
23718;SDS011;43322;52.230;5.702;2023-03-01T06:25:16;16.45;;;12.13;;
23718;SDS011;43322;52.230;5.702;2023-03-01T06:27:44;15.65;;;11.50;;
23718;SDS011;43322;52.230;5.702;2023-03-01T06:30:12;15.93;;;12.15;;
23718;SDS011;43322;52.230;5.702;2023-03-01T06:32:40;15.63;;;12.25;;
23718;SDS011;43322;52.230;5.702;2023-03-01T06:35:08;21.02;;;13.20;;
23718;SDS011;43322;52.230;5.702;2023-03-01T06:37:35;19.25;;;12.77;;
23718;SDS011;43322;52.230;5.702;2023-03-01T06:40:04;15.57;;;12.13;;
23718;SDS011;43322;52.230;5.702;2023-03-01T06:42:33;17.15;;;12.48;;
23718;SDS011;43322;52.230;5.702;2023-03-01T06:44:59;16.40;;;11.93;;
23718;SDS011;43322;52.230;5.702;2023-03-01T06:47:26;22.10;;;13.15;;
23718;SDS011;43322;52.230;5.702;2023-03-01T06:49:53;17.42;;;12.68;;
23718;SDS011;43322;52.230;5.702;2023-03-01T06:52:20;20.50;;;13.43;;
23718;SDS011;43322;52.230;5.702;2023-03-01T06:54:47;18.38;;;12.98;;
23718;SDS011;43322;52.230;5.702;2023-03-01T06:57:15;18.88;;;12.90;;
23718;SDS011;43322;52.230;5.702;2023-03-01T06:59:42;20.10;;;13.45;;
23718;SDS011;43322;52.230;5.702;2023-03-01T07:02:09;17.98;;;12.15;;
23718;SDS011;43322;52.230;5.702;2023-03-01T07:04:36;19.38;;;12.35;;
23718;SDS011;43322;52.230;5.702;2023-03-01T07:07:03;16.83;;;11.68;;
23718;SDS011;43322;52.230;5.702;2023-03-01T07:09:30;20.00;;;12.70;;
23718;SDS011;43322;52.230;5.702;2023-03-01T07:11:57;17.75;;;12.73;;
23718;SDS011;43322;52.230;5.702;2023-03-01T07:14:26;16.45;;;11.77;;
23718;SDS011;43322;52.230;5.702;2023-03-01T07:16:52;17.80;;;11.85;;
23718;SDS011;43322;52.230;5.702;2023-03-01T07:19:20;22.10;;;13.32;;
23718;SDS011;43322;52.230;5.702;2023-03-01T07:21:46;16.08;;;12.52;;
23718;SDS011;43322;52.230;5.702;2023-03-01T07:24:13;20.80;;;14.13;;
23718;SDS011;43322;52.230;5.702;2023-03-01T07:26:40;34.45;;;21.75;;
23718;SDS011;43322;52.230;5.702;2023-03-01T07:29:07;24.67;;;15.18;;
23718;SDS011;43322;52.230;5.702;2023-03-01T07:31:38;17.30;;;13.18;;
23718;SDS011;43322;52.230;5.702;2023-03-01T07:34:04;18.67;;;12.00;;
23718;SDS011;43322;52.230;5.702;2023-03-01T07:36:31;13.48;;;10.38;;
23718;SDS011;43322;52.230;5.702;2023-03-01T07:38:58;17.08;;;11.63;;
23718;SDS011;43322;52.230;5.702;2023-03-01T07:41:27;16.40;;;11.80;;
23718;SDS011;43322;52.230;5.702;2023-03-01T07:43:54;15.68;;;11.43;;
23718;SDS011;43322;52.230;5.702;2023-03-01T07:46:21;18.25;;;11.43;;
23718;SDS011;43322;52.230;5.702;2023-03-01T07:48:49;15.73;;;11.35;;
23718;SDS011;43322;52.230;5.702;2023-03-01T07:51:16;16.92;;;11.10;;
23718;SDS011;43322;52.230;5.702;2023-03-01T07:53:44;11.88;;;9.52;;
23718;SDS011;43322;52.230;5.702;2023-03-01T07:56:12;9.25;;;8.35;;
23718;SDS011;43322;52.230;5.702;2023-03-01T07:58:41;10.35;;;9.23;;
23718;SDS011;43322;52.230;5.702;2023-03-01T08:01:10;9.57;;;8.57;;
23718;SDS011;43322;52.230;5.702;2023-03-01T08:03:37;8.70;;;7.80;;
23718;SDS011;43322;52.230;5.702;2023-03-01T08:06:07;11.57;;;9.35;;
23718;SDS011;43322;52.230;5.702;2023-03-01T08:08:35;9.65;;;8.65;;
23718;SDS011;43322;52.230;5.702;2023-03-01T08:11:03;9.50;;;8.35;;
23718;SDS011;43322;52.230;5.702;2023-03-01T08:13:31;9.90;;;8.70;;
23718;SDS011;43322;52.230;5.702;2023-03-01T08:16:00;12.07;;;9.10;;
23718;SDS011;43322;52.230;5.702;2023-03-01T08:18:27;9.82;;;8.82;;
23718;SDS011;43322;52.230;5.702;2023-03-01T08:20:54;9.02;;;8.20;;
23718;SDS011;43322;52.230;5.702;2023-03-01T08:23:22;9.45;;;8.35;;
23718;SDS011;43322;52.230;5.702;2023-03-01T08:25:50;9.02;;;8.13;;
23718;SDS011;43322;52.230;5.702;2023-03-01T08:28:18;10.02;;;9.02;;
23718;SDS011;43322;52.230;5.702;2023-03-01T08:30:44;10.48;;;8.00;;
23718;SDS011;43322;52.230;5.702;2023-03-01T08:33:11;9.82;;;8.50;;
23718;SDS011;43322;52.230;5.702;2023-03-01T08:35:38;14.30;;;8.50;;
23718;SDS011;43322;52.230;5.702;2023-03-01T08:38:05;8.57;;;7.70;;
23718;SDS011;43322;52.230;5.702;2023-03-01T08:40:33;9.18;;;8.27;;
23718;SDS011;43322;52.230;5.702;2023-03-01T08:43:00;9.48;;;7.88;;
23718;SDS011;43322;52.230;5.702;2023-03-01T08:45:27;9.13;;;8.23;;
23718;SDS011;43322;52.230;5.702;2023-03-01T08:47:54;8.77;;;7.97;;
23718;SDS011;43322;52.230;5.702;2023-03-01T08:50:20;7.78;;;7.07;;
23718;SDS011;43322;52.230;5.702;2023-03-01T08:52:49;8.43;;;7.65;;
23718;SDS011;43322;52.230;5.702;2023-03-01T08:55:16;8.93;;;7.50;;
23718;SDS011;43322;52.230;5.702;2023-03-01T08:57:45;7.95;;;7.22;;
23718;SDS011;43322;52.230;5.702;2023-03-01T09:00:12;8.68;;;7.28;;
23718;SDS011;43322;52.230;5.702;2023-03-01T09:02:40;8.20;;;7.25;;
23718;SDS011;43322;52.230;5.702;2023-03-01T09:05:07;10.25;;;7.50;;
23718;SDS011;43322;52.230;5.702;2023-03-01T09:07:34;8.10;;;7.22;;
23718;SDS011;43322;52.230;5.702;2023-03-01T09:10:01;9.70;;;6.95;;
23718;SDS011;43322;52.230;5.702;2023-03-01T09:12:28;8.35;;;7.32;;
23718;SDS011;43322;52.230;5.702;2023-03-01T09:14:57;8.80;;;7.20;;
23718;SDS011;43322;52.230;5.702;2023-03-01T09:17:24;13.57;;;8.27;;
23718;SDS011;43322;52.230;5.702;2023-03-01T09:19:51;8.15;;;6.82;;
23718;SDS011;43322;52.230;5.702;2023-03-01T09:22:18;10.05;;;7.05;;
23718;SDS011;43322;52.230;5.702;2023-03-01T09:24:44;6.47;;;5.95;;
23718;SDS011;43322;52.230;5.702;2023-03-01T09:27:12;6.72;;;6.10;;
23718;SDS011;43322;52.230;5.702;2023-03-01T09:29:39;7.15;;;6.45;;
23718;SDS011;43322;52.230;5.702;2023-03-01T09:32:08;6.35;;;5.40;;
23718;SDS011;43322;52.230;5.702;2023-03-01T09:34:35;5.05;;;4.65;;
23718;SDS011;43322;52.230;5.702;2023-03-01T09:37:22;5.18;;;4.70;;
23718;SDS011;43322;52.230;5.702;2023-03-01T09:39:49;5.20;;;4.80;;
23718;SDS011;43322;52.230;5.702;2023-03-01T09:42:15;5.30;;;4.75;;
23718;SDS011;43322;52.230;5.702;2023-03-01T09:44:43;6.03;;;4.72;;
23718;SDS011;43322;52.230;5.702;2023-03-01T09:47:18;5.05;;;4.65;;
23718;SDS011;43322;52.230;5.702;2023-03-01T09:49:48;4.80;;;4.50;;
23718;SDS011;43322;52.230;5.702;2023-03-01T09:52:26;4.80;;;4.40;;
23718;SDS011;43322;52.230;5.702;2023-03-01T09:54:59;4.65;;;4.25;;
23718;SDS011;43322;52.230;5.702;2023-03-01T09:57:28;5.70;;;3.88;;
23718;SDS011;43322;52.230;5.702;2023-03-01T10:00:13;4.13;;;3.72;;
23718;SDS011;43322;52.230;5.702;2023-03-01T10:02:48;5.30;;;3.97;;
23718;SDS011;43322;52.230;5.702;2023-03-01T10:05:27;4.43;;;4.03;;
23718;SDS011;43322;52.230;5.702;2023-03-01T10:08:02;3.80;;;3.50;;
23718;SDS011;43322;52.230;5.702;2023-03-01T10:10:46;4.85;;;3.38;;
23718;SDS011;43322;52.230;5.702;2023-03-01T10:13:15;4.30;;;3.78;;
23718;SDS011;43322;52.230;5.702;2023-03-01T10:15:48;3.90;;;3.60;;
23718;SDS011;43322;52.230;5.702;2023-03-01T10:18:22;3.80;;;3.53;;
23718;SDS011;43322;52.230;5.702;2023-03-01T10:20:52;3.70;;;3.40;;
23718;SDS011;43322;52.230;5.702;2023-03-01T10:23:22;2.97;;;2.80;;
23718;SDS011;43322;52.230;5.702;2023-03-01T10:26:07;3.17;;;2.90;;
23718;SDS011;43322;52.230;5.702;2023-03-01T10:28:47;3.30;;;3.08;;
23718;SDS011;43322;52.230;5.702;2023-03-01T10:31:22;3.35;;;2.88;;
23718;SDS011;43322;52.230;5.702;2023-03-01T10:33:54;3.50;;;3.20;;
23718;SDS011;43322;52.230;5.702;2023-03-01T10:36:22;3.60;;;3.30;;
23718;SDS011;43322;52.230;5.702;2023-03-01T10:38:51;3.55;;;3.35;;
23718;SDS011;43322;52.230;5.702;2023-03-01T10:41:20;7.03;;;3.15;;
23718;SDS011;43322;52.230;5.702;2023-03-01T10:43:50;3.53;;;3.30;;
23718;SDS011;43322;52.230;5.702;2023-03-01T10:46:25;3.60;;;3.30;;
23718;SDS011;43322;52.230;5.702;2023-03-01T10:49:12;4.18;;;3.60;;
23718;SDS011;43322;52.230;5.702;2023-03-01T10:51:41;6.30;;;3.78;;
23718;SDS011;43322;52.230;5.702;2023-03-01T10:54:15;3.70;;;3.35;;
23718;SDS011;43322;52.230;5.702;2023-03-01T10:56:48;3.88;;;3.42;;
23718;SDS011;43322;52.230;5.702;2023-03-01T10:59:22;4.00;;;3.70;;
23718;SDS011;43322;52.230;5.702;2023-03-01T11:02:03;4.97;;;4.00;;
23718;SDS011;43322;52.230;5.702;2023-03-01T11:04:43;4.15;;;3.83;;
23718;SDS011;43322;52.230;5.702;2023-03-01T11:07:23;4.05;;;3.85;;
23718;SDS011;43322;52.230;5.702;2023-03-01T11:09:50;9.10;;;4.30;;
23718;SDS011;43322;52.230;5.702;2023-03-01T11:12:17;4.47;;;4.15;;
23718;SDS011;43322;52.230;5.702;2023-03-01T11:14:48;4.25;;;3.90;;
23718;SDS011;43322;52.230;5.702;2023-03-01T11:17:26;6.72;;;4.15;;
23718;SDS011;43322;52.230;5.702;2023-03-01T11:20:04;4.53;;;4.22;;
23718;SDS011;43322;52.230;5.702;2023-03-01T11:22:41;4.40;;;4.05;;
23718;SDS011;43322;52.230;5.702;2023-03-01T11:25:12;4.13;;;3.70;;
23718;SDS011;43322;52.230;5.702;2023-03-01T11:27:40;4.47;;;4.13;;
23718;SDS011;43322;52.230;5.702;2023-03-01T11:30:13;4.18;;;3.88;;
23718;SDS011;43322;52.230;5.702;2023-03-01T11:32:47;3.80;;;3.60;;
23718;SDS011;43322;52.230;5.702;2023-03-01T11:35:23;3.88;;;3.58;;
23718;SDS011;43322;52.230;5.702;2023-03-01T11:37:55;4.65;;;3.70;;
23718;SDS011;43322;52.230;5.702;2023-03-01T11:40:29;5.75;;;3.85;;
23718;SDS011;43322;52.230;5.702;2023-03-01T11:43:02;3.80;;;3.50;;
23718;SDS011;43322;52.230;5.702;2023-03-01T11:45:46;3.50;;;3.20;;
23718;SDS011;43322;52.230;5.702;2023-03-01T11:48:28;3.60;;;3.22;;
23718;SDS011;43322;52.230;5.702;2023-03-01T11:51:11;3.60;;;3.40;;
23718;SDS011;43322;52.230;5.702;2023-03-01T11:53:50;4.22;;;3.30;;
23718;SDS011;43322;52.230;5.702;2023-03-01T11:56:28;3.55;;;3.35;;
23718;SDS011;43322;52.230;5.702;2023-03-01T11:59:07;3.92;;;3.70;;
23718;SDS011;43322;52.230;5.702;2023-03-01T12:01:49;3.40;;;3.20;;
23718;SDS011;43322;52.230;5.702;2023-03-01T12:04:34;3.55;;;3.33;;
23718;SDS011;43322;52.230;5.702;2023-03-01T12:07:15;3.40;;;3.10;;
23718;SDS011;43322;52.230;5.702;2023-03-01T12:09:52;3.50;;;3.28;;
23718;SDS011;43322;52.230;5.702;2023-03-01T12:12:30;3.70;;;3.40;;
23718;SDS011;43322;52.230;5.702;2023-03-01T12:15:07;3.47;;;3.22;;
23718;SDS011;43322;52.230;5.702;2023-03-01T12:17:58;3.55;;;3.33;;
23718;SDS011;43322;52.230;5.702;2023-03-01T12:20:38;3.30;;;3.10;;
23718;SDS011;43322;52.230;5.702;2023-03-01T12:26:16;4.35;;;3.38;;
23718;SDS011;43322;52.230;5.702;2023-03-01T12:29:02;5.47;;;3.72;;
23718;SDS011;43322;52.230;5.702;2023-03-01T12:31:45;3.80;;;3.60;;
23718;SDS011;43322;52.230;5.702;2023-03-01T12:34:35;3.28;;;3.08;;
23718;SDS011;43322;52.230;5.702;2023-03-01T12:37:18;3.70;;;3.40;;
23718;SDS011;43322;52.230;5.702;2023-03-01T12:39:54;4.15;;;3.78;;
23718;SDS011;43322;52.230;5.702;2023-03-01T12:42:33;3.92;;;3.50;;
23718;SDS011;43322;52.230;5.702;2023-03-01T12:45:17;4.00;;;3.70;;
23718;SDS011;43322;52.230;5.702;2023-03-01T12:48:02;3.75;;;3.45;;
23718;SDS011;43322;52.230;5.702;2023-03-01T12:50:45;3.95;;;3.30;;
23718;SDS011;43322;52.230;5.702;2023-03-01T12:53:19;3.65;;;3.45;;
23718;SDS011;43322;52.230;5.702;2023-03-01T12:55:49;3.50;;;3.30;;
23718;SDS011;43322;52.230;5.702;2023-03-01T12:58:23;3.50;;;3.30;;
23718;SDS011;43322;52.230;5.702;2023-03-01T13:01:00;3.83;;;3.53;;
23718;SDS011;43322;52.230;5.702;2023-03-01T13:03:35;3.97;;;3.60;;
23718;SDS011;43322;52.230;5.702;2023-03-01T13:06:11;3.30;;;3.00;;
23718;SDS011;43322;52.230;5.702;2023-03-01T13:08:42;3.42;;;3.22;;
23718;SDS011;43322;52.230;5.702;2023-03-01T13:11:15;3.72;;;3.42;;
23718;SDS011;43322;52.230;5.702;2023-03-01T13:13:45;3.03;;;2.83;;
23718;SDS011;43322;52.230;5.702;2023-03-01T13:16:21;3.80;;;3.58;;
23718;SDS011;43322;52.230;5.702;2023-03-01T13:19:06;3.70;;;3.40;;
23718;SDS011;43322;52.230;5.702;2023-03-01T13:21:35;3.80;;;3.50;;
23718;SDS011;43322;52.230;5.702;2023-03-01T13:24:03;3.58;;;3.30;;
23718;SDS011;43322;52.230;5.702;2023-03-01T13:26:30;3.70;;;3.40;;
23718;SDS011;43322;52.230;5.702;2023-03-01T13:28:58;4.45;;;3.60;;
23718;SDS011;43322;52.230;5.702;2023-03-01T13:34:47;7.15;;;3.55;;
23718;SDS011;43322;52.230;5.702;2023-03-01T13:43:28;5.40;;;3.53;;
23718;SDS011;43322;52.230;5.702;2023-03-01T13:45:58;3.80;;;3.47;;
23718;SDS011;43322;52.230;5.702;2023-03-01T13:48:29;4.30;;;4.00;;
23718;SDS011;43322;52.230;5.702;2023-03-01T13:50:58;4.22;;;3.47;;
23718;SDS011;43322;52.230;5.702;2023-03-01T13:53:27;4.60;;;3.83;;
23718;SDS011;43322;52.230;5.702;2023-03-01T13:55:58;4.30;;;3.88;;
23718;SDS011;43322;52.230;5.702;2023-03-01T13:58:28;3.88;;;3.65;;
23718;SDS011;43322;52.230;5.702;2023-03-01T14:00:59;4.70;;;4.25;;
23718;SDS011;43322;52.230;5.702;2023-03-01T14:03:27;4.28;;;3.97;;
23718;SDS011;43322;52.230;5.702;2023-03-01T14:05:59;4.15;;;3.85;;
23718;SDS011;43322;52.230;5.702;2023-03-01T14:08:28;4.38;;;3.97;;
23718;SDS011;43322;52.230;5.702;2023-03-01T14:11:00;4.50;;;4.13;;
23718;SDS011;43322;52.230;5.702;2023-03-01T14:13:54;5.32;;;4.20;;
23718;SDS011;43322;52.230;5.702;2023-03-01T14:16:37;3.60;;;3.35;;
23718;SDS011;43322;52.230;5.702;2023-03-01T14:19:14;4.20;;;3.90;;
23718;SDS011;43322;52.230;5.702;2023-03-01T14:21:44;4.35;;;3.90;;
23718;SDS011;43322;52.230;5.702;2023-03-01T14:24:18;3.63;;;3.42;;
23718;SDS011;43322;52.230;5.702;2023-03-01T14:26:47;4.45;;;4.15;;
23718;SDS011;43322;52.230;5.702;2023-03-01T14:29:25;4.25;;;3.92;;
23718;SDS011;43322;52.230;5.702;2023-03-01T14:31:54;4.22;;;3.88;;
23718;SDS011;43322;52.230;5.702;2023-03-01T14:34:22;4.00;;;3.70;;
23718;SDS011;43322;52.230;5.702;2023-03-01T14:36:50;5.13;;;4.10;;
23718;SDS011;43322;52.230;5.702;2023-03-01T14:39:17;4.47;;;4.07;;
23718;SDS011;43322;52.230;5.702;2023-03-01T14:41:46;4.28;;;3.83;;
23718;SDS011;43322;52.230;5.702;2023-03-01T14:44:14;4.32;;;4.03;;
23718;SDS011;43322;52.230;5.702;2023-03-01T14:46:51;4.82;;;4.28;;
23718;SDS011;43322;52.230;5.702;2023-03-01T14:49:21;4.28;;;3.88;;
23718;SDS011;43322;52.230;5.702;2023-03-01T14:51:51;4.10;;;3.90;;
23718;SDS011;43322;52.230;5.702;2023-03-01T14:54:22;4.40;;;4.10;;
23718;SDS011;43322;52.230;5.702;2023-03-01T14:56:52;6.68;;;4.32;;
23718;SDS011;43322;52.230;5.702;2023-03-01T14:59:21;4.82;;;4.45;;
23718;SDS011;43322;52.230;5.702;2023-03-01T15:01:49;5.85;;;4.80;;
23718;SDS011;43322;52.230;5.702;2023-03-01T15:04:18;4.78;;;4.38;;
23718;SDS011;43322;52.230;5.702;2023-03-01T15:06:49;4.68;;;4.25;;
23718;SDS011;43322;52.230;5.702;2023-03-01T15:09:17;4.93;;;4.53;;
23718;SDS011;43322;52.230;5.702;2023-03-01T15:11:46;4.80;;;4.50;;